Weather at Keelin Heliport

Public forecast

Using degrees Fahrenheit for public forecast. Weather courtesy of forecast.io.

Closest aviation weather report (METAR) to Keelin Heliport

Closest report is Alamogordo White Sands Regional Airport, 8.1 nm (15.1 km) S. Retrieved 2021/12/01 11:55 UTC (13 minutes ago):

KALM 011155Z AUTO 20004KT 10SM CLR 04/M06 A3024 RMK AO2

Closest aviation forecast (TAF) to Keelin Heliport

Closest forecast is Holloman Air Force Base, 9.7 nm (18.0 km) SW. Retrieved 2021/12/01 09:03 UTC (3 hours ago):

TAF KHMN 010900Z 0109/0215 VRB06KT 9999 FEW220 QNH3018INS TX22/0122Z TN00/0113Z